sensor_id;sensor_type;location;lat;lon;timestamp;P1;durP1;ratioP1;P2;durP2;ratioP2
32321;SDS011;61553;48.994;8.940;2022-08-01T00:00:41;4.55;;;2.40;;
32321;SDS011;61553;48.994;8.940;2022-08-01T00:03:06;2.92;;;2.08;;
32321;SDS011;61553;48.994;8.940;2022-08-01T00:05:32;3.67;;;2.00;;
32321;SDS011;61553;48.994;8.940;2022-08-01T00:07:57;3.75;;;1.92;;
32321;SDS011;61553;48.994;8.940;2022-08-01T00:10:23;5.10;;;2.42;;
32321;SDS011;61553;48.994;8.940;2022-08-01T00:12:49;3.78;;;2.17;;
32321;SDS011;61553;48.994;8.940;2022-08-01T00:15:15;4.78;;;2.53;;
32321;SDS011;61553;48.994;8.940;2022-08-01T00:17:42;7.70;;;2.28;;
32321;SDS011;61553;48.994;8.940;2022-08-01T00:20:09;4.20;;;2.50;;
32321;SDS011;61553;48.994;8.940;2022-08-01T00:22:36;5.57;;;2.40;;
32321;SDS011;61553;48.994;8.940;2022-08-01T00:25:02;4.03;;;2.42;;
32321;SDS011;61553;48.994;8.940;2022-08-01T00:27:28;4.40;;;2.47;;
32321;SDS011;61553;48.994;8.940;2022-08-01T00:29:54;4.30;;;2.17;;
32321;SDS011;61553;48.994;8.940;2022-08-01T00:32:19;4.85;;;2.53;;
32321;SDS011;61553;48.994;8.940;2022-08-01T00:34:45;3.20;;;2.25;;
32321;SDS011;61553;48.994;8.940;2022-08-01T00:37:11;4.65;;;2.20;;
32321;SDS011;61553;48.994;8.940;2022-08-01T00:39:36;4.28;;;2.35;;
32321;SDS011;61553;48.994;8.940;2022-08-01T00:42:06;3.67;;;2.30;;
32321;SDS011;61553;48.994;8.940;2022-08-01T00:44:33;3.83;;;2.50;;
32321;SDS011;61553;48.994;8.940;2022-08-01T00:46:59;4.43;;;2.63;;
32321;SDS011;61553;48.994;8.940;2022-08-01T00:49:24;5.03;;;2.90;;
32321;SDS011;61553;48.994;8.940;2022-08-01T00:51:50;5.57;;;3.05;;
32321;SDS011;61553;48.994;8.940;2022-08-01T00:54:16;4.25;;;2.67;;
32321;SDS011;61553;48.994;8.940;2022-08-01T00:56:42;6.57;;;3.13;;
32321;SDS011;61553;48.994;8.940;2022-08-01T00:59:08;4.93;;;2.70;;
32321;SDS011;61553;48.994;8.940;2022-08-01T01:01:36;4.63;;;2.80;;
32321;SDS011;61553;48.994;8.940;2022-08-01T01:04:01;4.75;;;2.65;;
32321;SDS011;61553;48.994;8.940;2022-08-01T01:06:34;3.92;;;2.53;;
32321;SDS011;61553;48.994;8.940;2022-08-01T01:09:12;5.15;;;3.03;;
32321;SDS011;61553;48.994;8.940;2022-08-01T01:17:21;8.18;;;3.47;;
32321;SDS011;61553;48.994;8.940;2022-08-01T01:19:54;4.63;;;2.80;;
32321;SDS011;61553;48.994;8.940;2022-08-01T01:22:24;4.43;;;2.72;;
32321;SDS011;61553;48.994;8.940;2022-08-01T01:24:57;5.43;;;2.90;;
32321;SDS011;61553;48.994;8.940;2022-08-01T01:30:28;4.78;;;3.33;;
32321;SDS011;61553;48.994;8.940;2022-08-01T01:32:55;4.63;;;3.13;;
32321;SDS011;61553;48.994;8.940;2022-08-01T01:35:27;4.72;;;2.97;;
32321;SDS011;61553;48.994;8.940;2022-08-01T01:37:58;6.43;;;3.22;;
32321;SDS011;61553;48.994;8.940;2022-08-01T01:40:29;4.35;;;2.70;;
32321;SDS011;61553;48.994;8.940;2022-08-01T01:42:56;4.88;;;2.90;;
32321;SDS011;61553;48.994;8.940;2022-08-01T01:45:25;6.18;;;3.00;;
32321;SDS011;61553;48.994;8.940;2022-08-01T01:47:52;4.28;;;2.97;;
32321;SDS011;61553;48.994;8.940;2022-08-01T01:50:20;4.32;;;2.83;;
32321;SDS011;61553;48.994;8.940;2022-08-01T01:52:46;3.67;;;2.63;;
32321;SDS011;61553;48.994;8.940;2022-08-01T01:55:14;4.40;;;2.70;;
32321;SDS011;61553;48.994;8.940;2022-08-01T01:57:43;5.35;;;3.35;;
32321;SDS011;61553;48.994;8.940;2022-08-01T02:00:10;4.03;;;2.83;;
32321;SDS011;61553;48.994;8.940;2022-08-01T02:02:38;4.60;;;2.83;;
32321;SDS011;61553;48.994;8.940;2022-08-01T02:05:05;5.55;;;2.90;;
32321;SDS011;61553;48.994;8.940;2022-08-01T02:07:33;6.03;;;3.30;;
32321;SDS011;61553;48.994;8.940;2022-08-01T02:10:00;5.38;;;3.17;;
32321;SDS011;61553;48.994;8.940;2022-08-01T02:12:28;4.53;;;2.90;;
32321;SDS011;61553;48.994;8.940;2022-08-01T02:14:58;5.63;;;3.30;;
32321;SDS011;61553;48.994;8.940;2022-08-01T02:17:24;4.70;;;3.10;;
32321;SDS011;61553;48.994;8.940;2022-08-01T02:19:51;4.82;;;3.22;;
32321;SDS011;61553;48.994;8.940;2022-08-01T02:22:32;4.53;;;3.00;;
32321;SDS011;61553;48.994;8.940;2022-08-01T02:25:03;6.00;;;3.10;;
32321;SDS011;61553;48.994;8.940;2022-08-01T02:27:46;7.07;;;3.13;;
32321;SDS011;61553;48.994;8.940;2022-08-01T02:30:38;5.85;;;3.08;;
32321;SDS011;61553;48.994;8.940;2022-08-01T02:33:30;6.10;;;3.80;;
32321;SDS011;61553;48.994;8.940;2022-08-01T02:35:58;6.10;;;2.78;;
32321;SDS011;61553;48.994;8.940;2022-08-01T02:38:27;5.55;;;3.70;;
32321;SDS011;61553;48.994;8.940;2022-08-01T02:40:57;5.50;;;3.53;;
32321;SDS011;61553;48.994;8.940;2022-08-01T02:43:26;5.40;;;3.10;;
32321;SDS011;61553;48.994;8.940;2022-08-01T02:45:56;7.88;;;3.97;;
32321;SDS011;61553;48.994;8.940;2022-08-01T02:48:25;5.10;;;3.47;;
32321;SDS011;61553;48.994;8.940;2022-08-01T02:50:53;8.65;;;3.85;;
32321;SDS011;61553;48.994;8.940;2022-08-01T02:53:21;5.68;;;3.60;;
32321;SDS011;61553;48.994;8.940;2022-08-01T02:55:50;6.63;;;3.70;;
32321;SDS011;61553;48.994;8.940;2022-08-01T02:58:18;5.93;;;3.38;;
32321;SDS011;61553;48.994;8.940;2022-08-01T03:00:45;6.43;;;3.40;;
32321;SDS011;61553;48.994;8.940;2022-08-01T03:03:12;8.68;;;3.80;;
32321;SDS011;61553;48.994;8.940;2022-08-01T03:05:39;6.18;;;3.40;;
32321;SDS011;61553;48.994;8.940;2022-08-01T03:08:07;5.75;;;3.55;;
32321;SDS011;61553;48.994;8.940;2022-08-01T03:10:36;5.03;;;3.40;;
32321;SDS011;61553;48.994;8.940;2022-08-01T03:13:04;6.30;;;4.47;;
32321;SDS011;61553;48.994;8.940;2022-08-01T03:15:31;5.65;;;3.53;;
32321;SDS011;61553;48.994;8.940;2022-08-01T03:18:05;5.60;;;3.33;;
32321;SDS011;61553;48.994;8.940;2022-08-01T03:20:33;5.18;;;3.50;;
32321;SDS011;61553;48.994;8.940;2022-08-01T03:22:59;5.90;;;3.38;;
32321;SDS011;61553;48.994;8.940;2022-08-01T03:25:29;4.43;;;3.20;;
32321;SDS011;61553;48.994;8.940;2022-08-01T03:27:58;6.47;;;3.80;;
32321;SDS011;61553;48.994;8.940;2022-08-01T03:30:27;5.20;;;3.92;;
32321;SDS011;61553;48.994;8.940;2022-08-01T03:32:53;7.35;;;3.90;;
32321;SDS011;61553;48.994;8.940;2022-08-01T03:35:19;6.78;;;3.78;;
32321;SDS011;61553;48.994;8.940;2022-08-01T03:37:47;8.88;;;3.95;;
32321;SDS011;61553;48.994;8.940;2022-08-01T03:40:18;7.50;;;3.50;;
32321;SDS011;61553;48.994;8.940;2022-08-01T03:42:49;6.38;;;3.75;;
32321;SDS011;61553;48.994;8.940;2022-08-01T03:45:19;7.32;;;3.95;;
32321;SDS011;61553;48.994;8.940;2022-08-01T03:47:48;6.78;;;4.82;;
32321;SDS011;61553;48.994;8.940;2022-08-01T03:50:19;7.13;;;4.50;;
32321;SDS011;61553;48.994;8.940;2022-08-01T03:52:47;6.20;;;4.60;;
32321;SDS011;61553;48.994;8.940;2022-08-01T03:55:15;5.82;;;4.30;;
32321;SDS011;61553;48.994;8.940;2022-08-01T03:57:41;7.65;;;4.18;;
32321;SDS011;61553;48.994;8.940;2022-08-01T04:00:09;6.03;;;4.32;;
32321;SDS011;61553;48.994;8.940;2022-08-01T04:02:36;8.00;;;3.95;;
32321;SDS011;61553;48.994;8.940;2022-08-01T04:05:03;5.30;;;3.55;;
32321;SDS011;61553;48.994;8.940;2022-08-01T04:07:30;5.57;;;4.22;;
32321;SDS011;61553;48.994;8.940;2022-08-01T04:10:00;7.07;;;4.10;;
32321;SDS011;61553;48.994;8.940;2022-08-01T04:12:26;6.25;;;4.15;;
32321;SDS011;61553;48.994;8.940;2022-08-01T04:14:52;6.63;;;4.13;;
32321;SDS011;61553;48.994;8.940;2022-08-01T04:17:18;6.65;;;4.22;;
32321;SDS011;61553;48.994;8.940;2022-08-01T04:19:44;7.43;;;4.40;;
32321;SDS011;61553;48.994;8.940;2022-08-01T04:22:10;6.75;;;4.10;;
32321;SDS011;61553;48.994;8.940;2022-08-01T04:24:37;5.97;;;4.07;;
32321;SDS011;61553;48.994;8.940;2022-08-01T04:27:05;10.32;;;4.18;;
32321;SDS011;61553;48.994;8.940;2022-08-01T04:29:35;10.93;;;4.18;;
32321;SDS011;61553;48.994;8.940;2022-08-01T04:32:01;8.43;;;4.25;;
32321;SDS011;61553;48.994;8.940;2022-08-01T04:34:28;7.72;;;4.53;;
32321;SDS011;61553;48.994;8.940;2022-08-01T04:36:56;5.95;;;3.80;;
32321;SDS011;61553;48.994;8.940;2022-08-01T04:39:26;6.15;;;3.70;;
32321;SDS011;61553;48.994;8.940;2022-08-01T04:41:55;7.75;;;3.60;;
32321;SDS011;61553;48.994;8.940;2022-08-01T04:44:28;5.55;;;3.72;;
32321;SDS011;61553;48.994;8.940;2022-08-01T04:46:54;6.32;;;3.90;;
32321;SDS011;61553;48.994;8.940;2022-08-01T04:49:21;5.82;;;3.92;;
32321;SDS011;61553;48.994;8.940;2022-08-01T04:51:51;7.07;;;3.72;;
32321;SDS011;61553;48.994;8.940;2022-08-01T04:54:22;7.43;;;3.78;;
32321;SDS011;61553;48.994;8.940;2022-08-01T04:56:49;5.03;;;3.45;;
32321;SDS011;61553;48.994;8.940;2022-08-01T04:59:15;6.55;;;3.67;;
32321;SDS011;61553;48.994;8.940;2022-08-01T05:01:59;8.00;;;3.47;;
32321;SDS011;61553;48.994;8.940;2022-08-01T05:04:25;6.05;;;3.47;;
32321;SDS011;61553;48.994;8.940;2022-08-01T05:06:51;5.05;;;3.20;;
32321;SDS011;61553;48.994;8.940;2022-08-01T05:09:16;7.35;;;3.70;;
32321;SDS011;61553;48.994;8.940;2022-08-01T05:11:42;6.53;;;3.70;;
32321;SDS011;61553;48.994;8.940;2022-08-01T05:14:07;13.27;;;3.95;;
32321;SDS011;61553;48.994;8.940;2022-08-01T05:16:33;6.82;;;3.70;;
32321;SDS011;61553;48.994;8.940;2022-08-01T05:18:58;6.53;;;3.78;;
32321;SDS011;61553;48.994;8.940;2022-08-01T05:21:24;5.53;;;3.35;;
32321;SDS011;61553;48.994;8.940;2022-08-01T05:23:50;7.63;;;3.40;;
32321;SDS011;61553;48.994;8.940;2022-08-01T05:26:15;7.20;;;3.40;;
32321;SDS011;61553;48.994;8.940;2022-08-01T05:28:41;7.05;;;4.00;;
32321;SDS011;61553;48.994;8.940;2022-08-01T05:31:07;5.82;;;3.67;;
32321;SDS011;61553;48.994;8.940;2022-08-01T05:33:32;5.85;;;4.00;;
32321;SDS011;61553;48.994;8.940;2022-08-01T05:35:58;6.18;;;3.42;;
32321;SDS011;61553;48.994;8.940;2022-08-01T05:38:24;5.35;;;3.10;;
32321;SDS011;61553;48.994;8.940;2022-08-01T05:40:49;4.75;;;3.65;;
32321;SDS011;61553;48.994;8.940;2022-08-01T05:43:15;4.82;;;3.40;;
32321;SDS011;61553;48.994;8.940;2022-08-01T05:45:41;5.40;;;3.30;;
32321;SDS011;61553;48.994;8.940;2022-08-01T05:48:07;9.13;;;4.00;;
32321;SDS011;61553;48.994;8.940;2022-08-01T05:50:32;8.02;;;3.72;;
32321;SDS011;61553;48.994;8.940;2022-08-01T05:52:58;6.70;;;3.72;;
32321;SDS011;61553;48.994;8.940;2022-08-01T05:55:24;6.65;;;3.38;;
32321;SDS011;61553;48.994;8.940;2022-08-01T05:57:49;6.05;;;3.33;;
32321;SDS011;61553;48.994;8.940;2022-08-01T06:00:15;9.10;;;3.53;;
32321;SDS011;61553;48.994;8.940;2022-08-01T06:02:41;5.00;;;3.13;;
32321;SDS011;61553;48.994;8.940;2022-08-01T06:05:08;7.22;;;3.35;;
32321;SDS011;61553;48.994;8.940;2022-08-01T06:07:34;6.07;;;3.08;;
32321;SDS011;61553;48.994;8.940;2022-08-01T06:10:00;4.82;;;3.20;;
32321;SDS011;61553;48.994;8.940;2022-08-01T06:12:26;4.53;;;3.05;;
32321;SDS011;61553;48.994;8.940;2022-08-01T06:14:51;5.30;;;2.45;;
32321;SDS011;61553;48.994;8.940;2022-08-01T06:17:17;3.95;;;2.38;;
32321;SDS011;61553;48.994;8.940;2022-08-01T06:19:42;8.48;;;3.13;;
32321;SDS011;61553;48.994;8.940;2022-08-01T06:22:08;3.67;;;2.00;;
32321;SDS011;61553;48.994;8.940;2022-08-01T06:24:34;5.80;;;2.38;;
32321;SDS011;61553;48.994;8.940;2022-08-01T06:27:00;3.25;;;1.85;;
32321;SDS011;61553;48.994;8.940;2022-08-01T06:29:26;4.50;;;2.05;;
32321;SDS011;61553;48.994;8.940;2022-08-01T06:31:52;3.33;;;1.77;;
32321;SDS011;61553;48.994;8.940;2022-08-01T06:34:17;4.95;;;2.25;;
32321;SDS011;61553;48.994;8.940;2022-08-01T06:36:43;4.38;;;1.90;;
32321;SDS011;61553;48.994;8.940;2022-08-01T06:39:09;4.47;;;2.00;;
32321;SDS011;61553;48.994;8.940;2022-08-01T06:41:34;3.80;;;1.88;;
32321;SDS011;61553;48.994;8.940;2022-08-01T06:44:00;8.15;;;1.90;;
32321;SDS011;61553;48.994;8.940;2022-08-01T06:46:27;3.33;;;1.77;;
32321;SDS011;61553;48.994;8.940;2022-08-01T06:48:52;5.57;;;1.77;;
32321;SDS011;61553;48.994;8.940;2022-08-01T06:51:18;3.40;;;1.60;;
32321;SDS011;61553;48.994;8.940;2022-08-01T06:53:45;6.60;;;2.17;;
32321;SDS011;61553;48.994;8.940;2022-08-01T06:56:11;3.90;;;2.05;;
32321;SDS011;61553;48.994;8.940;2022-08-01T06:58:36;2.85;;;1.60;;
32321;SDS011;61553;48.994;8.940;2022-08-01T07:01:05;4.60;;;1.55;;
32321;SDS011;61553;48.994;8.940;2022-08-01T07:03:32;5.10;;;1.90;;
32321;SDS011;61553;48.994;8.940;2022-08-01T07:05:58;4.20;;;1.75;;
32321;SDS011;61553;48.994;8.940;2022-08-01T07:08:24;2.90;;;1.55;;
32321;SDS011;61553;48.994;8.940;2022-08-01T07:10:49;4.18;;;1.60;;
32321;SDS011;61553;48.994;8.940;2022-08-01T07:13:15;3.55;;;1.80;;
32321;SDS011;61553;48.994;8.940;2022-08-01T07:15:45;4.45;;;1.42;;
32321;SDS011;61553;48.994;8.940;2022-08-01T07:18:11;3.45;;;1.83;;
32321;SDS011;61553;48.994;8.940;2022-08-01T07:20:37;3.85;;;1.40;;
32321;SDS011;61553;48.994;8.940;2022-08-01T07:23:03;4.30;;;1.60;;
32321;SDS011;61553;48.994;8.940;2022-08-01T07:25:28;3.58;;;1.63;;
32321;SDS011;61553;48.994;8.940;2022-08-01T07:27:54;4.10;;;1.63;;
32321;SDS011;61553;48.994;8.940;2022-08-01T07:30:20;2.58;;;1.48;;
32321;SDS011;61553;48.994;8.940;2022-08-01T07:32:45;3.85;;;1.73;;
32321;SDS011;61553;48.994;8.940;2022-08-01T07:35:11;4.22;;;1.80;;
32321;SDS011;61553;48.994;8.940;2022-08-01T07:37:37;3.55;;;1.65;;
32321;SDS011;61553;48.994;8.940;2022-08-01T07:40:03;5.38;;;1.73;;
32321;SDS011;61553;48.994;8.940;2022-08-01T07:42:30;2.53;;;1.80;;
32321;SDS011;61553;48.994;8.940;2022-08-01T07:44:56;3.22;;;1.48;;
32321;SDS011;61553;48.994;8.940;2022-08-01T07:47:24;3.13;;;1.45;;
32321;SDS011;61553;48.994;8.940;2022-08-01T07:49:51;4.10;;;1.77;;
32321;SDS011;61553;48.994;8.940;2022-08-01T07:52:17;4.57;;;1.55;;
32321;SDS011;61553;48.994;8.940;2022-08-01T07:54:43;2.97;;;1.58;;
32321;SDS011;61553;48.994;8.940;2022-08-01T07:57:08;3.53;;;1.48;;
32321;SDS011;61553;48.994;8.940;2022-08-01T07:59:34;4.75;;;1.73;;
32321;SDS011;61553;48.994;8.940;2022-08-01T08:02:00;3.90;;;1.90;;
32321;SDS011;61553;48.994;8.940;2022-08-01T08:04:26;3.75;;;1.55;;
32321;SDS011;61553;48.994;8.940;2022-08-01T08:06:52;4.15;;;1.75;;
32321;SDS011;61553;48.994;8.940;2022-08-01T08:09:18;2.55;;;1.45;;
32321;SDS011;61553;48.994;8.940;2022-08-01T08:11:44;3.58;;;1.73;;
32321;SDS011;61553;48.994;8.940;2022-08-01T08:14:10;3.47;;;1.67;;
32321;SDS011;61553;48.994;8.940;2022-08-01T08:16:37;3.47;;;1.50;;
32321;SDS011;61553;48.994;8.940;2022-08-01T08:19:03;3.28;;;1.60;;
32321;SDS011;61553;48.994;8.940;2022-08-01T08:21:28;3.63;;;1.90;;
32321;SDS011;61553;48.994;8.940;2022-08-01T08:23:55;2.95;;;1.50;;
32321;SDS011;61553;48.994;8.940;2022-08-01T08:26:39;3.00;;;1.90;;
32321;SDS011;61553;48.994;8.940;2022-08-01T08:29:05;2.95;;;1.77;;
32321;SDS011;61553;48.994;8.940;2022-08-01T08:31:31;3.88;;;1.63;;
32321;SDS011;61553;48.994;8.940;2022-08-01T08:33:57;4.20;;;2.58;;
32321;SDS011;61553;48.994;8.940;2022-08-01T08:36:23;4.55;;;3.00;;
32321;SDS011;61553;48.994;8.940;2022-08-01T08:38:49;4.30;;;3.17;;
32321;SDS011;61553;48.994;8.940;2022-08-01T08:41:15;4.28;;;3.50;;
32321;SDS011;61553;48.994;8.940;2022-08-01T08:43:40;5.38;;;3.67;;
32321;SDS011;61553;48.994;8.940;2022-08-01T08:46:06;6.30;;;3.60;;
32321;SDS011;61553;48.994;8.940;2022-08-01T08:48:34;5.55;;;3.60;;
32321;SDS011;61553;48.994;8.940;2022-08-01T08:51:01;5.53;;;4.00;;
32321;SDS011;61553;48.994;8.940;2022-08-01T08:53:27;9.05;;;3.70;;
32321;SDS011;61553;48.994;8.940;2022-08-01T08:55:56;5.50;;;3.45;;
32321;SDS011;61553;48.994;8.940;2022-08-01T08:58:23;4.53;;;3.15;;
32321;SDS011;61553;48.994;8.940;2022-08-01T09:00:52;5.28;;;2.90;;
32321;SDS011;61553;48.994;8.940;2022-08-01T09:03:21;5.22;;;3.00;;
32321;SDS011;61553;48.994;8.940;2022-08-01T09:05:46;6.68;;;3.40;;
32321;SDS011;61553;48.994;8.940;2022-08-01T09:08:12;4.07;;;2.45;;
32321;SDS011;61553;48.994;8.940;2022-08-01T09:10:38;6.00;;;3.00;;
32321;SDS011;61553;48.994;8.940;2022-08-01T09:13:08;5.72;;;2.67;;
32321;SDS011;61553;48.994;8.940;2022-08-01T09:15:48;3.70;;;2.28;;
32321;SDS011;61553;48.994;8.940;2022-08-01T09:23:32;5.10;;;2.80;;
32321;SDS011;61553;48.994;8.940;2022-08-01T09:26:05;4.78;;;2.53;;
32321;SDS011;61553;48.994;8.940;2022-08-01T09:28:31;4.57;;;2.28;;
32321;SDS011;61553;48.994;8.940;2022-08-01T09:30:57;3.58;;;2.30;;
32321;SDS011;61553;48.994;8.940;2022-08-01T09:33:24;5.47;;;1.90;;
32321;SDS011;61553;48.994;8.940;2022-08-01T09:35:56;3.08;;;2.08;;
32321;SDS011;61553;48.994;8.940;2022-08-01T09:38:25;8.45;;;2.60;;
32321;SDS011;61553;48.994;8.940;2022-08-01T09:43:21;3.22;;;1.80;;
32321;SDS011;61553;48.994;8.940;2022-08-01T09:45:48;4.15;;;2.08;;
32321;SDS011;61553;48.994;8.940;2022-08-01T09:48:15;4.57;;;2.17;;
32321;SDS011;61553;48.994;8.940;2022-08-01T09:50:44;4.20;;;2.22;;
32321;SDS011;61553;48.994;8.940;2022-08-01T09:53:12;5.00;;;2.03;;
32321;SDS011;61553;48.994;8.940;2022-08-01T09:55:38;3.13;;;1.60;;
32321;SDS011;61553;48.994;8.940;2022-08-01T09:58:05;4.53;;;1.83;;
32321;SDS011;61553;48.994;8.940;2022-08-01T10:00:31;4.50;;;1.98;;
32321;SDS011;61553;48.994;8.940;2022-08-01T10:02:58;3.78;;;1.80;;
32321;SDS011;61553;48.994;8.940;2022-08-01T10:05:31;5.55;;;2.20;;
32321;SDS011;61553;48.994;8.940;2022-08-01T10:07:58;4.20;;;2.00;;
32321;SDS011;61553;48.994;8.940;2022-08-01T10:10:28;3.55;;;1.60;;
32321;SDS011;61553;48.994;8.940;2022-08-01T10:12:55;4.25;;;1.85;;
32321;SDS011;61553;48.994;8.940;2022-08-01T10:15:22;4.03;;;1.90;;
32321;SDS011;61553;48.994;8.940;2022-08-01T10:17:53;5.90;;;2.00;;
32321;SDS011;61553;48.994;8.940;2022-08-01T10:20:22;4.20;;;2.08;;
32321;SDS011;61553;48.994;8.940;2022-08-01T10:22:53;4.03;;;2.00;;
32321;SDS011;61553;48.994;8.940;2022-08-01T10:25:20;3.45;;;1.85;;
32321;SDS011;61553;48.994;8.940;2022-08-01T10:27:49;3.50;;;1.95;;
32321;SDS011;61553;48.994;8.940;2022-08-01T10:30:20;3.25;;;1.95;;
32321;SDS011;61553;48.994;8.940;2022-08-01T10:32:46;4.88;;;1.90;;
32321;SDS011;61553;48.994;8.940;2022-08-01T10:35:12;3.17;;;1.65;;
32321;SDS011;61553;48.994;8.940;2022-08-01T10:37:42;3.92;;;1.70;;
32321;SDS011;61553;48.994;8.940;2022-08-01T10:40:15;6.45;;;1.98;;
32321;SDS011;61553;48.994;8.940;2022-08-01T10:42:41;4.07;;;2.05;;
32321;SDS011;61553;48.994;8.940;2022-08-01T10:45:16;3.05;;;1.95;;
32321;SDS011;61553;48.994;8.940;2022-08-01T10:47:51;3.70;;;2.08;;
32321;SDS011;61553;48.994;8.940;2022-08-01T10:50:21;3.83;;;1.77;;
32321;SDS011;61553;48.994;8.940;2022-08-01T10:55:45;5.93;;;1.90;;
32321;SDS011;61553;48.994;8.940;2022-08-01T10:58:35;2.85;;;1.80;;
32321;SDS011;61553;48.994;8.940;2022-08-01T11:03:43;3.35;;;1.95;;
32321;SDS011;61553;48.994;8.940;2022-08-01T11:06:22;4.32;;;1.90;;
32321;SDS011;61553;48.994;8.940;2022-08-01T11:08:52;3.03;;;1.83;;
32321;SDS011;61553;48.994;8.940;2022-08-01T11:11:21;4.55;;;1.70;;
32321;SDS011;61553;48.994;8.940;2022-08-01T11:16:37;3.15;;;1.70;;
32321;SDS011;61553;48.994;8.940;2022-08-01T11:19:04;3.38;;;1.98;;
32321;SDS011;61553;48.994;8.940;2022-08-01T11:30:52;2.88;;;1.55;;
32321;SDS011;61553;48.994;8.940;2022-08-01T11:35:20;3.72;;;1.63;;
32321;SDS011;61553;48.994;8.940;2022-08-01T11:37:48;3.75;;;1.92;;
32321;SDS011;61553;48.994;8.940;2022-08-01T11:40:28;3.33;;;1.85;;
32321;SDS011;61553;48.994;8.940;2022-08-01T11:45:51;3.40;;;1.70;;
32321;SDS011;61553;48.994;8.940;2022-08-01T11:48:20;4.57;;;1.90;;
32321;SDS011;61553;48.994;8.940;2022-08-01T11:50:50;4.10;;;1.95;;
32321;SDS011;61553;48.994;8.940;2022-08-01T11:53:18;3.20;;;1.80;;
32321;SDS011;61553;48.994;8.940;2022-08-01T11:55:51;3.90;;;1.75;;
32321;SDS011;61553;48.994;8.940;2022-08-01T11:58:22;2.50;;;1.58;;
32321;SDS011;61553;48.994;8.940;2022-08-01T12:00:50;3.10;;;1.63;;
32321;SDS011;61553;48.994;8.940;2022-08-01T12:03:20;2.25;;;1.38;;
32321;SDS011;61553;48.994;8.940;2022-08-01T12:05:55;2.20;;;1.35;;
32321;SDS011;61553;48.994;8.940;2022-08-01T12:10:51;4.45;;;1.67;;
32321;SDS011;61553;48.994;8.940;2022-08-01T12:13:17;3.33;;;1.65;;
32321;SDS011;61553;48.994;8.940;2022-08-01T12:15:43;3.70;;;1.80;;
32321;SDS011;61553;48.994;8.940;2022-08-01T12:18:10;3.63;;;2.08;;
32321;SDS011;61553;48.994;8.940;2022-08-01T12:20:37;3.47;;;1.92;;
32321;SDS011;61553;48.994;8.940;2022-08-01T12:23:05;3.25;;;2.10;;
32321;SDS011;61553;48.994;8.940;2022-08-01T12:25:33;3.55;;;1.90;;
32321;SDS011;61553;48.994;8.940;2022-08-01T12:28:03;3.33;;;1.77;;
32321;SDS011;61553;48.994;8.940;2022-08-01T12:30:30;4.03;;;1.65;;
32321;SDS011;61553;48.994;8.940;2022-08-01T12:32:56;3.60;;;1.70;;
32321;SDS011;61553;48.994;8.940;2022-08-01T12:35:23;3.13;;;1.30;;
32321;SDS011;61553;48.994;8.940;2022-08-01T12:37:52;3.33;;;1.50;;
32321;SDS011;61553;48.994;8.940;2022-08-01T12:40:20;4.40;;;1.65;;
32321;SDS011;61553;48.994;8.940;2022-08-01T12:42:50;3.70;;;1.50;;
32321;SDS011;61553;48.994;8.940;2022-08-01T12:45:18;4.22;;;2.00;;
32321;SDS011;61553;48.994;8.940;2022-08-01T12:47:46;3.10;;;1.50;;
32321;SDS011;61553;48.994;8.940;2022-08-01T12:50:22;3.58;;;1.90;;
32321;SDS011;61553;48.994;8.940;2022-08-01T12:52:50;3.92;;;1.70;;
32321;SDS011;61553;48.994;8.940;2022-08-01T12:55:17;3.92;;;1.67;;
32321;SDS011;61553;48.994;8.940;2022-08-01T12:57:47;3.80;;;2.05;;
32321;SDS011;61553;48.994;8.940;2022-08-01T13:03:07;3.45;;;1.63;;
32321;SDS011;61553;48.994;8.940;2022-08-01T13:05:47;3.15;;;1.73;;
32321;SDS011;61553;48.994;8.940;2022-08-01T13:08:22;3.75;;;1.80;;
32321;SDS011;61553;48.994;8.940;2022-08-01T13:10:48;3.22;;;1.45;;
32321;SDS011;61553;48.994;8.940;2022-08-01T13:13:15;3.45;;;1.65;;
32321;SDS011;61553;48.994;8.940;2022-08-01T13:15:42;4.13;;;2.10;;
32321;SDS011;61553;48.994;8.940;2022-08-01T13:18:22;4.07;;;1.67;;
32321;SDS011;61553;48.994;8.940;2022-08-01T13:23:36;3.08;;;1.90;;
32321;SDS011;61553;48.994;8.940;2022-08-01T13:26:03;5.47;;;2.28;;
32321;SDS011;61553;48.994;8.940;2022-08-01T13:28:29;3.17;;;1.67;;
32321;SDS011;61553;48.994;8.940;2022-08-01T13:30:59;3.42;;;1.83;;
32321;SDS011;61553;48.994;8.940;2022-08-01T13:33:28;3.90;;;1.90;;
32321;SDS011;61553;48.994;8.940;2022-08-01T13:36:08;3.65;;;1.80;;
32321;SDS011;61553;48.994;8.940;2022-08-01T13:38:34;4.00;;;1.90;;
32321;SDS011;61553;48.994;8.940;2022-08-01T13:41:18;2.38;;;1.70;;
32321;SDS011;61553;48.994;8.940;2022-08-01T13:43:44;4.63;;;1.70;;
32321;SDS011;61553;48.994;8.940;2022-08-01T13:46:09;4.07;;;1.80;;
32321;SDS011;61553;48.994;8.940;2022-08-01T13:48:35;3.50;;;1.98;;
32321;SDS011;61553;48.994;8.940;2022-08-01T13:51:01;6.18;;;1.83;;
32321;SDS011;61553;48.994;8.940;2022-08-01T13:53:27;3.67;;;1.83;;
32321;SDS011;61553;48.994;8.940;2022-08-01T13:55:53;3.28;;;1.95;;
32321;SDS011;61553;48.994;8.940;2022-08-01T13:58:19;4.22;;;1.83;;
32321;SDS011;61553;48.994;8.940;2022-08-01T14:00:45;3.15;;;1.73;;
32321;SDS011;61553;48.994;8.940;2022-08-01T14:03:11;2.90;;;1.70;;
32321;SDS011;61553;48.994;8.940;2022-08-01T14:05:37;5.72;;;1.65;;
32321;SDS011;61553;48.994;8.940;2022-08-01T14:08:04;4.43;;;1.65;;
32321;SDS011;61553;48.994;8.940;2022-08-01T14:10:30;3.60;;;1.50;;
32321;SDS011;61553;48.994;8.940;2022-08-01T14:12:56;3.30;;;1.80;;
32321;SDS011;61553;48.994;8.940;2022-08-01T14:15:23;3.30;;;1.40;;
32321;SDS011;61553;48.994;8.940;2022-08-01T14:17:49;2.45;;;1.17;;
32321;SDS011;61553;48.994;8.940;2022-08-01T14:20:15;2.33;;;1.52;;
32321;SDS011;61553;48.994;8.940;2022-08-01T14:22:44;3.47;;;1.60;;
32321;SDS011;61553;48.994;8.940;2022-08-01T14:25:10;2.47;;;1.50;;
32321;SDS011;61553;48.994;8.940;2022-08-01T14:27:36;5.22;;;1.90;;
32321;SDS011;61553;48.994;8.940;2022-08-01T14:30:04;3.08;;;1.40;;
32321;SDS011;61553;48.994;8.940;2022-08-01T14:32:31;4.78;;;1.65;;
32321;SDS011;61553;48.994;8.940;2022-08-01T14:34:58;4.38;;;1.40;;
32321;SDS011;61553;48.994;8.940;2022-08-01T14:37:24;2.05;;;1.17;;
32321;SDS011;61553;48.994;8.940;2022-08-01T14:39:50;2.67;;;1.50;;
32321;SDS011;61553;48.994;8.940;2022-08-01T14:42:15;2.25;;;1.52;;
32321;SDS011;61553;48.994;8.940;2022-08-01T14:44:41;2.33;;;1.52;;
32321;SDS011;61553;48.994;8.940;2022-08-01T14:47:07;6.15;;;1.63;;
32321;SDS011;61553;48.994;8.940;2022-08-01T14:49:32;2.72;;;1.75;;
32321;SDS011;61553;48.994;8.940;2022-08-01T14:51:58;4.80;;;1.58;;
32321;SDS011;61553;48.994;8.940;2022-08-01T14:54:24;3.97;;;1.58;;
32321;SDS011;61553;48.994;8.940;2022-08-01T14:56:50;3.00;;;1.40;;
32321;SDS011;61553;48.994;8.940;2022-08-01T14:59:17;2.50;;;1.40;;
32321;SDS011;61553;48.994;8.940;2022-08-01T15:01:44;5.72;;;1.55;;
32321;SDS011;61553;48.994;8.940;2022-08-01T15:04:09;2.63;;;1.35;;
32321;SDS011;61553;48.994;8.940;2022-08-01T15:06:35;2.15;;;1.23;;
32321;SDS011;61553;48.994;8.940;2022-08-01T15:09:01;4.20;;;1.70;;
32321;SDS011;61553;48.994;8.940;2022-08-01T15:11:27;2.15;;;1.25;;
32321;SDS011;61553;48.994;8.940;2022-08-01T15:13:52;3.20;;;1.30;;
32321;SDS011;61553;48.994;8.940;2022-08-01T15:16:37;1.75;;;0.90;;
32321;SDS011;61553;48.994;8.940;2022-08-01T15:19:03;2.75;;;1.27;;
32321;SDS011;61553;48.994;8.940;2022-08-01T15:21:29;4.60;;;1.20;;
32321;SDS011;61553;48.994;8.940;2022-08-01T15:23:54;2.80;;;1.15;;
32321;SDS011;61553;48.994;8.940;2022-08-01T15:26:20;4.43;;;1.55;;
32321;SDS011;61553;48.994;8.940;2022-08-01T15:28:45;3.45;;;1.20;;
32321;SDS011;61553;48.994;8.940;2022-08-01T15:31:11;4.88;;;1.30;;
32321;SDS011;61553;48.994;8.940;2022-08-01T15:33:37;3.30;;;1.25;;
32321;SDS011;61553;48.994;8.940;2022-08-01T15:36:03;4.43;;;1.42;;
32321;SDS011;61553;48.994;8.940;2022-08-01T15:38:29;2.45;;;1.20;;